createdAt,value
2023-03-06T00:00:42.604Z,4.96
2023-03-06T00:02:45.810Z,4.90
2023-03-06T00:04:48.748Z,4.87
2023-03-06T00:06:52.175Z,4.99
2023-03-06T00:08:55.394Z,4.91
2023-03-06T00:10:59.519Z,4.90
2023-03-06T00:13:04.497Z,4.73
2023-03-06T00:15:08.764Z,4.60
2023-03-06T00:17:13.310Z,4.65
2023-03-06T00:19:16.183Z,4.58
2023-03-06T00:21:19.346Z,4.66
2023-03-06T00:23:22.212Z,4.77
2023-03-06T00:25:25.191Z,4.78
2023-03-06T00:27:28.035Z,4.82
2023-03-06T00:29:30.973Z,4.72
2023-03-06T00:31:34.007Z,4.75
2023-03-06T00:33:41.768Z,4.74
2023-03-06T00:35:44.794Z,4.57
2023-03-06T00:37:48.108Z,4.60
2023-03-06T00:39:51.257Z,4.35
2023-03-06T00:41:58.727Z,4.35
2023-03-06T00:44:01.837Z,4.33
2023-03-06T00:46:05.777Z,4.38
2023-03-06T00:48:08.735Z,4.58
2023-03-06T00:50:13.674Z,4.70
2023-03-06T00:52:16.626Z,4.82
2023-03-06T00:54:19.804Z,4.59
2023-03-06T00:56:23.111Z,4.43
2023-03-06T00:58:26.325Z,4.31
2023-03-06T01:00:29.221Z,4.52
2023-03-06T01:02:32.870Z,4.56
2023-03-06T01:04:36.728Z,4.37
2023-03-06T01:06:41.759Z,4.41
2023-03-06T01:08:44.859Z,4.40
2023-03-06T01:10:47.724Z,4.40
2023-03-06T01:12:53.969Z,4.39
2023-03-06T01:14:57.114Z,4.52
2023-03-06T01:17:00.320Z,4.46
2023-03-06T01:19:03.208Z,4.39
2023-03-06T01:21:07.270Z,4.49
2023-03-06T01:23:12.825Z,4.48
2023-03-06T01:25:15.731Z,4.67
2023-03-06T01:27:19.512Z,4.53
2023-03-06T01:29:22.363Z,4.55
2023-03-06T01:31:26.144Z,4.57
2023-03-06T01:33:29.070Z,4.72
2023-03-06T01:35:33.106Z,4.50
2023-03-06T01:37:37.003Z,4.57
2023-03-06T01:39:41.251Z,4.76
2023-03-06T01:41:44.562Z,4.83
2023-03-06T01:43:48.046Z,4.84
2023-03-06T01:46:26.491Z,4.89
2023-03-06T01:48:30.050Z,4.49
2023-03-06T01:50:32.991Z,4.65
2023-03-06T01:52:37.981Z,4.84
2023-03-06T01:54:46.599Z,4.77
2023-03-06T01:56:51.970Z,4.85
2023-03-06T01:58:55.133Z,4.82
2023-03-06T02:00:58.704Z,4.71
2023-03-06T02:03:05.731Z,4.88
2023-03-06T02:05:09.765Z,4.97
2023-03-06T02:07:13.038Z,4.86
2023-03-06T02:09:16.549Z,4.66
2023-03-06T02:11:23.872Z,4.77
2023-03-06T02:13:26.826Z,4.89
2023-03-06T02:15:31.433Z,4.70
2023-03-06T02:17:35.545Z,4.90
2023-03-06T02:19:49.297Z,4.97
2023-03-06T02:21:54.766Z,4.93
2023-03-06T02:24:08.467Z,5.05
2023-03-06T02:26:14.113Z,5.03
2023-03-06T02:28:18.722Z,5.01
2023-03-06T02:30:24.878Z,5.04
2023-03-06T02:32:27.824Z,5.10
2023-03-06T02:34:54.201Z,5.14
2023-03-06T02:37:00.045Z,5.11
2023-03-06T02:39:03.015Z,5.03
2023-03-06T02:41:08.642Z,4.94
2023-03-06T02:43:13.923Z,4.84
2023-03-06T02:45:22.299Z,4.77
2023-03-06T02:47:25.281Z,4.97
2023-03-06T02:49:30.490Z,4.77
2023-03-06T02:51:35.315Z,4.70
2023-03-06T02:53:38.819Z,4.66
2023-03-06T02:55:42.201Z,4.62
2023-03-06T02:57:45.169Z,4.55
2023-03-06T02:59:49.397Z,4.79
2023-03-06T03:01:52.387Z,4.48
2023-03-06T03:03:55.805Z,4.58
2023-03-06T03:05:58.967Z,4.63
2023-03-06T03:08:05.876Z,4.38
2023-03-06T03:10:10.574Z,4.25
2023-03-06T03:12:13.503Z,4.56
2023-03-06T03:14:17.502Z,4.40
2023-03-06T03:16:23.779Z,4.37
2023-03-06T03:18:27.166Z,4.29
2023-03-06T03:20:29.983Z,4.35
2023-03-06T03:22:33.088Z,4.21
2023-03-06T03:24:36.025Z,4.31
2023-03-06T03:26:39.285Z,4.07
2023-03-06T03:28:47.645Z,4.50
2023-03-06T03:30:53.816Z,4.53
2023-03-06T03:32:58.084Z,4.19
2023-03-06T03:35:01.541Z,4.41
2023-03-06T03:37:04.852Z,4.49
2023-03-06T03:39:07.890Z,4.20
2023-03-06T03:41:11.267Z,4.09
2023-03-06T03:43:14.331Z,4.21
2023-03-06T03:45:17.338Z,4.20
2023-03-06T03:47:21.138Z,4.04
2023-03-06T03:49:26.225Z,4.31
2023-03-06T03:51:29.569Z,4.43
2023-03-06T03:53:34.738Z,4.43
2023-03-06T03:55:38.201Z,4.48
2023-03-06T03:57:41.385Z,4.54
2023-03-06T03:59:44.295Z,4.25
2023-03-06T04:01:57.166Z,4.23
2023-03-06T04:04:01.832Z,4.44
2023-03-06T04:06:06.719Z,4.51
2023-03-06T04:08:09.918Z,4.59
2023-03-06T04:10:16.785Z,4.67
2023-03-06T04:12:20.076Z,4.65
2023-03-06T04:14:23.931Z,4.71
2023-03-06T04:16:26.985Z,4.72
2023-03-06T04:18:30.050Z,4.72
2023-03-06T04:20:40.443Z,4.80
2023-03-06T04:22:45.046Z,4.77
2023-03-06T04:24:49.864Z,4.74
2023-03-06T04:26:53.694Z,4.70
2023-03-06T04:28:58.458Z,4.51
2023-03-06T04:31:01.565Z,4.54
2023-03-06T04:33:06.198Z,4.32
2023-03-06T04:35:10.029Z,4.49
2023-03-06T04:37:23.097Z,4.35
2023-03-06T04:39:28.021Z,4.52
2023-03-06T04:41:31.710Z,4.41
2023-03-06T04:43:35.084Z,4.49
2023-03-06T04:45:38.679Z,4.62
2023-03-06T04:47:41.620Z,4.63
2023-03-06T04:49:44.506Z,4.60
2023-03-06T04:51:47.705Z,4.61
2023-03-06T04:53:50.778Z,4.60
2023-03-06T04:55:54.979Z,4.73
2023-03-06T04:57:58.926Z,4.75
2023-03-06T05:00:01.792Z,4.77
2023-03-06T05:02:04.707Z,4.42
2023-03-06T05:04:07.693Z,4.62
2023-03-06T05:06:10.587Z,4.65
2023-03-06T05:08:15.222Z,4.49
2023-03-06T05:10:19.373Z,4.26
2023-03-06T05:12:25.836Z,4.33
2023-03-06T05:14:30.334Z,4.48
2023-03-06T05:16:33.361Z,4.54
2023-03-06T05:18:36.926Z,4.17
2023-03-06T05:20:40.095Z,4.42
2023-03-06T05:22:43.407Z,4.49
2023-03-06T05:24:46.319Z,3.97
2023-03-06T05:26:49.358Z,3.90
2023-03-06T05:28:53.629Z,3.97
2023-03-06T05:30:56.676Z,3.85
2023-03-06T05:32:59.851Z,3.96
2023-03-06T05:35:02.693Z,3.90
2023-03-06T05:37:05.733Z,3.95
2023-03-06T05:39:08.675Z,3.90
2023-03-06T05:41:12.958Z,4.15
2023-03-06T05:43:15.884Z,4.23
2023-03-06T05:45:20.264Z,4.12
2023-03-06T05:47:23.691Z,4.00
2023-03-06T05:49:26.727Z,4.09
2023-03-06T05:51:29.651Z,4.20
2023-03-06T05:53:33.365Z,4.21
2023-03-06T05:55:36.265Z,4.14
2023-03-06T05:57:39.347Z,4.22
2023-03-06T05:59:43.265Z,4.16
2023-03-06T06:01:47.518Z,4.14
2023-03-06T06:03:50.595Z,3.93
2023-03-06T06:05:53.882Z,3.89
2023-03-06T06:07:57.259Z,4.10
2023-03-06T06:10:02.319Z,3.80
2023-03-06T06:12:06.941Z,3.82
2023-03-06T06:14:09.865Z,3.86
2023-03-06T06:16:15.781Z,3.80
2023-03-06T06:18:20.696Z,3.90
2023-03-06T06:20:24.362Z,3.98
2023-03-06T06:22:27.400Z,3.81
2023-03-06T06:24:30.417Z,3.82
2023-03-06T06:26:33.485Z,3.82
2023-03-06T06:28:36.724Z,3.65
2023-03-06T06:30:39.886Z,3.73
2023-03-06T06:32:43.669Z,3.57
2023-03-06T06:34:49.450Z,3.76
2023-03-06T06:36:53.753Z,3.82
2023-03-06T06:38:56.794Z,3.86
2023-03-06T06:41:31.037Z,3.89
2023-03-06T06:43:22.984Z,3.87
2023-03-06T06:45:25.930Z,3.91
2023-03-06T06:47:28.885Z,3.94
2023-03-06T06:49:31.982Z,3.94
2023-03-06T06:51:37.378Z,3.82
2023-03-06T06:53:40.226Z,3.93
2023-03-06T06:55:43.628Z,3.91
2023-03-06T06:57:47.554Z,3.90
2023-03-06T06:59:52.547Z,4.19
2023-03-06T07:01:56.796Z,4.22
2023-03-06T07:04:00.498Z,3.80
2023-03-06T07:06:04.261Z,4.07
2023-03-06T07:08:08.512Z,4.18
2023-03-06T07:10:15.736Z,4.06
2023-03-06T07:12:18.670Z,4.14
2023-03-06T07:14:21.714Z,4.19
2023-03-06T07:16:24.812Z,3.99
2023-03-06T07:18:27.779Z,3.79
2023-03-06T07:20:31.946Z,4.06
2023-03-06T07:22:48.647Z,4.04
2023-03-06T07:24:54.952Z,4.02
2023-03-06T07:26:57.961Z,4.17
2023-03-06T07:29:00.816Z,3.82
2023-03-06T07:31:03.878Z,4.06
2023-03-06T07:33:07.106Z,4.06
2023-03-06T07:35:19.849Z,3.86
2023-03-06T07:37:23.227Z,4.17
2023-03-06T07:39:28.202Z,4.38
2023-03-06T07:41:32.553Z,4.53
2023-03-06T07:43:35.490Z,4.36
2023-03-06T07:45:39.610Z,4.35
2023-03-06T07:47:43.122Z,4.35
2023-03-06T07:49:45.969Z,4.55
2023-03-06T07:51:50.237Z,4.29
2023-03-06T07:53:53.171Z,4.31
2023-03-06T07:55:56.505Z,4.52
2023-03-06T07:58:00.910Z,4.42
2023-03-06T08:00:04.273Z,4.37
2023-03-06T08:02:15.787Z,4.48
2023-03-06T08:04:18.854Z,4.38
2023-03-06T08:06:23.714Z,4.35
2023-03-06T08:08:26.608Z,4.54
2023-03-06T08:10:29.505Z,4.61
2023-03-06T08:12:33.014Z,4.49
2023-03-06T08:14:37.661Z,4.46
2023-03-06T08:16:40.690Z,4.56
2023-03-06T08:18:46.141Z,4.37
2023-03-06T08:20:49.423Z,4.35
2023-03-06T08:22:52.351Z,4.23
2023-03-06T08:24:56.346Z,4.62
2023-03-06T08:26:59.257Z,4.64
2023-03-06T08:29:03.412Z,4.48
2023-03-06T08:31:12.573Z,4.26
2023-03-06T08:33:15.481Z,4.45
2023-03-06T08:35:18.610Z,4.71
2023-03-06T08:37:22.725Z,4.60
2023-03-06T08:39:25.643Z,4.63
2023-03-06T08:41:29.090Z,4.67
2023-03-06T08:43:32.212Z,4.55
2023-03-06T08:45:35.241Z,4.77
2023-03-06T08:47:39.783Z,4.84
2023-03-06T08:49:42.674Z,5.00
2023-03-06T08:51:46.155Z,5.15
2023-03-06T08:53:49.439Z,5.15
2023-03-06T08:55:52.657Z,5.05
2023-03-06T08:57:55.724Z,4.88
2023-03-06T08:59:58.738Z,4.96
2023-03-06T09:02:01.672Z,5.19
2023-03-06T09:04:08.636Z,4.73
2023-03-06T09:06:12.849Z,4.88
2023-03-06T09:08:15.941Z,5.13
2023-03-06T09:10:20.976Z,5.31
2023-03-06T09:12:23.844Z,5.32
2023-03-06T09:14:26.758Z,5.44
2023-03-06T09:16:29.698Z,5.38
2023-03-06T09:18:33.101Z,5.34
2023-03-06T09:20:37.381Z,5.11
2023-03-06T09:22:42.620Z,5.28
2023-03-06T09:24:45.534Z,5.17
2023-03-06T09:26:51.143Z,5.08
2023-03-06T09:28:54.812Z,4.98
2023-03-06T09:30:57.862Z,5.21
2023-03-06T09:33:00.850Z,5.14
2023-03-06T09:35:03.973Z,5.21
2023-03-06T09:37:08.215Z,5.25
2023-03-06T09:39:11.905Z,4.49
2023-03-06T09:41:27.926Z,4.38
2023-03-06T09:43:36.093Z,4.89
2023-03-06T09:45:39.107Z,4.73
2023-03-06T09:47:47.143Z,4.82
2023-03-06T09:49:59.409Z,4.67
2023-03-06T09:52:11.712Z,4.78
2023-03-06T09:54:15.784Z,5.03
2023-03-06T09:56:20.993Z,4.61
2023-03-06T09:58:24.887Z,4.89
2023-03-06T10:00:30.153Z,4.76
2023-03-06T10:02:38.181Z,4.71
2023-03-06T10:04:43.521Z,5.21
2023-03-06T10:06:50.383Z,5.01
2023-03-06T10:08:59.851Z,5.14
2023-03-06T10:11:07.082Z,5.42
2023-03-06T10:13:17.596Z,5.50
2023-03-06T10:15:24.021Z,5.11
2023-03-06T10:17:27.497Z,5.26
2023-03-06T10:19:34.561Z,5.54
2023-03-06T10:21:52.531Z,5.56
2023-03-06T10:23:59.937Z,5.64
2023-03-06T10:26:05.131Z,5.62
2023-03-06T10:28:16.441Z,5.55
2023-03-06T10:30:29.721Z,5.54
2023-03-06T10:32:48.208Z,5.05
2023-03-06T10:34:52.478Z,5.26
2023-03-06T10:36:55.562Z,4.90
2023-03-06T10:39:00.732Z,5.03
2023-03-06T10:41:08.793Z,5.24
2023-03-06T10:43:12.550Z,5.30
2023-03-06T10:45:17.718Z,5.32
2023-03-06T10:47:29.934Z,5.40
2023-03-06T10:49:36.607Z,5.54
2023-03-06T10:51:40.249Z,5.61
2023-03-06T10:53:51.219Z,5.75
2023-03-06T10:56:00.828Z,5.72
2023-03-06T10:58:19.390Z,5.75
2023-03-06T11:00:28.871Z,5.70
2023-03-06T11:02:33.340Z,5.82
2023-03-06T11:04:38.089Z,5.96
2023-03-06T11:06:41.223Z,5.88
2023-03-06T11:08:45.062Z,5.71
2023-03-06T11:10:56.624Z,5.92
2023-03-06T11:13:02.987Z,5.71
2023-03-06T11:15:26.869Z,5.78
2023-03-06T11:17:32.206Z,5.78
2023-03-06T11:19:35.104Z,6.00
2023-03-06T11:21:39.914Z,5.93
2023-03-06T11:23:44.597Z,5.68
2023-03-06T11:25:51.356Z,5.80
2023-03-06T11:27:57.647Z,5.83
2023-03-06T11:30:04.204Z,5.81
2023-03-06T11:32:12.355Z,5.90
2023-03-06T11:34:20.080Z,6.02
2023-03-06T11:36:26.637Z,6.11
2023-03-06T11:38:37.345Z,5.86
2023-03-06T11:40:44.319Z,6.05
2023-03-06T11:42:51.212Z,6.16
2023-03-06T11:45:02.912Z,5.93
2023-03-06T11:47:14.504Z,6.22
2023-03-06T11:49:25.001Z,6.36
2023-03-06T11:51:31.809Z,6.26
2023-03-06T11:53:37.135Z,6.13
2023-03-06T11:55:45.879Z,6.51
2023-03-06T11:57:53.716Z,6.50
2023-03-06T12:00:15.439Z,6.72
2023-03-06T12:02:33.082Z,6.52
2023-03-06T12:04:57.307Z,6.64
2023-03-06T12:07:07.806Z,6.83
2023-03-06T12:09:23.764Z,7.00
2023-03-06T12:11:33.245Z,7.36
2023-03-06T12:13:55.036Z,7.28
2023-03-06T12:16:25.939Z,6.90
2023-03-06T12:18:44.949Z,7.15
2023-03-06T12:20:55.128Z,7.05
2023-03-06T12:23:15.115Z,7.56
2023-03-06T12:25:31.129Z,7.91
2023-03-06T12:27:41.770Z,8.07
2023-03-06T12:30:00.557Z,7.81
2023-03-06T12:32:16.831Z,8.10
2023-03-06T12:34:31.251Z,7.87
2023-03-06T12:36:42.616Z,7.61
2023-03-06T12:39:08.378Z,7.98
2023-03-06T12:41:21.905Z,8.70
2023-03-06T12:43:38.873Z,9.18
2023-03-06T12:45:44.343Z,9.12
2023-03-06T12:47:48.754Z,9.03
2023-03-06T12:49:56.199Z,8.79
2023-03-06T12:52:00.139Z,8.67
2023-03-06T12:54:04.371Z,9.44
2023-03-06T12:56:08.509Z,9.89
2023-03-06T12:58:49.629Z,9.93
2023-03-06T13:01:05.901Z,10.62
2023-03-06T13:03:17.703Z,10.27
2023-03-06T13:05:48.289Z,9.99
2023-03-06T13:08:01.447Z,9.50
2023-03-06T13:10:12.561Z,9.57
2023-03-06T13:12:37.874Z,9.59
2023-03-06T13:15:00.299Z,9.07
2023-03-06T13:17:28.305Z,9.22
2023-03-06T13:19:31.266Z,8.76
2023-03-06T13:22:03.691Z,8.84
2023-03-06T13:24:07.051Z,8.75
2023-03-06T13:26:10.935Z,8.41
2023-03-06T13:28:24.857Z,8.75
2023-03-06T13:30:44.287Z,8.51
2023-03-06T13:32:49.001Z,8.48
2023-03-06T13:34:51.990Z,8.40
2023-03-06T13:37:34.892Z,8.69
2023-03-06T13:40:13.432Z,8.28
2023-03-06T13:42:27.660Z,8.41
2023-03-06T13:44:52.355Z,8.69
2023-03-06T13:46:59.911Z,8.71
2023-03-06T13:49:15.034Z,8.72
2023-03-06T13:51:25.700Z,8.75
2023-03-06T13:54:01.374Z,8.72
2023-03-06T13:56:17.128Z,8.65
2023-03-06T13:58:39.762Z,8.49
2023-03-06T14:00:58.808Z,8.52
2023-03-06T14:03:23.555Z,8.33
2023-03-06T14:05:35.749Z,8.30
2023-03-06T14:07:41.507Z,8.24
2023-03-06T14:09:45.672Z,8.12
2023-03-06T14:11:53.886Z,7.94
2023-03-06T14:13:58.971Z,7.85
2023-03-06T14:16:02.352Z,8.09
2023-03-06T14:18:08.009Z,7.87
2023-03-06T14:20:15.887Z,8.11
2023-03-06T14:22:22.496Z,7.87
2023-03-06T14:24:32.862Z,8.10
2023-03-06T14:26:41.959Z,8.29
2023-03-06T14:28:46.886Z,8.40
2023-03-06T14:30:53.255Z,8.39
2023-03-06T14:32:56.473Z,8.18
2023-03-06T14:34:59.753Z,7.99
2023-03-06T14:37:05.506Z,8.13
2023-03-06T14:39:11.859Z,7.77
2023-03-06T14:41:24.062Z,7.88
2023-03-06T14:43:27.980Z,7.95
2023-03-06T14:45:31.214Z,7.57
2023-03-06T14:47:37.056Z,7.77
2023-03-06T14:49:40.077Z,7.64
2023-03-06T14:51:44.278Z,7.75
2023-03-06T14:53:49.770Z,7.93
2023-03-06T14:55:56.039Z,7.83
2023-03-06T14:58:04.739Z,7.89
2023-03-06T15:00:09.437Z,8.00
2023-03-06T15:02:16.734Z,8.10
2023-03-06T15:04:27.338Z,8.17
2023-03-06T15:06:34.705Z,8.25
2023-03-06T15:08:39.743Z,8.34
2023-03-06T15:10:44.365Z,8.36
2023-03-06T15:12:47.368Z,8.55
2023-03-06T15:14:58.071Z,8.61
2023-03-06T15:17:26.730Z,8.72
2023-03-06T15:19:40.252Z,8.73
2023-03-06T15:21:47.951Z,8.74
2023-03-06T15:23:51.608Z,8.75
2023-03-06T15:26:22.198Z,8.79
2023-03-06T15:28:36.962Z,8.83
2023-03-06T15:30:39.941Z,8.85
2023-03-06T15:32:43.158Z,8.83
2023-03-06T15:34:47.805Z,8.94
2023-03-06T15:36:54.321Z,9.00
2023-03-06T15:38:58.570Z,9.09
2023-03-06T15:41:02.337Z,9.19
2023-03-06T15:43:09.999Z,9.31
2023-03-06T15:45:18.280Z,9.37
2023-03-06T15:47:21.963Z,9.44
2023-03-06T15:49:25.725Z,9.40
2023-03-06T15:51:30.829Z,9.32
2023-03-06T15:53:33.752Z,9.26
2023-03-06T15:55:38.072Z,9.35
2023-03-06T15:57:42.903Z,9.43
2023-03-06T15:59:46.214Z,8.95
2023-03-06T16:01:49.334Z,8.40
2023-03-06T16:03:52.291Z,8.29
2023-03-06T16:05:55.244Z,8.29
2023-03-06T16:07:59.783Z,8.20
2023-03-06T16:10:03.648Z,8.25
2023-03-06T16:12:08.173Z,8.09
2023-03-06T16:14:18.807Z,7.86
2023-03-06T16:16:27.892Z,8.10
2023-03-06T16:18:31.572Z,7.73
2023-03-06T16:20:34.510Z,7.76
2023-03-06T16:22:37.410Z,7.33
2023-03-06T16:24:41.944Z,7.38
2023-03-06T16:26:46.202Z,7.32
2023-03-06T16:28:49.425Z,7.42
2023-03-06T16:30:52.450Z,7.15
2023-03-06T16:32:55.552Z,7.18
2023-03-06T16:34:58.915Z,7.13
2023-03-06T16:37:01.903Z,7.08
2023-03-06T16:39:05.191Z,7.17
2023-03-06T16:41:09.862Z,7.14
2023-03-06T16:43:16.127Z,6.96
2023-03-06T16:45:20.817Z,6.99
2023-03-06T16:47:23.820Z,6.79
2023-03-06T16:49:27.960Z,6.57
2023-03-06T16:51:30.915Z,6.70
2023-03-06T16:53:33.928Z,6.56
2023-03-06T16:55:37.275Z,6.60
2023-03-06T16:57:48.808Z,6.57
2023-03-06T16:59:51.862Z,6.41
2023-03-06T17:01:54.967Z,6.71
2023-03-06T17:03:58.044Z,6.66
2023-03-06T17:06:01.048Z,6.40
2023-03-06T17:08:04.772Z,6.57
2023-03-06T17:10:10.604Z,6.79
2023-03-06T17:12:14.064Z,6.49
2023-03-06T17:14:19.062Z,6.65
2023-03-06T17:16:22.102Z,6.63
2023-03-06T17:18:25.455Z,6.54
2023-03-06T17:20:28.383Z,6.50
2023-03-06T17:22:33.831Z,6.62
2023-03-06T17:24:37.297Z,6.44
2023-03-06T17:26:40.359Z,6.34
2023-03-06T17:28:43.488Z,6.29
2023-03-06T17:30:47.832Z,6.30
2023-03-06T17:32:50.962Z,6.15
2023-03-06T17:34:54.713Z,6.09
2023-03-06T17:36:57.792Z,6.33
2023-03-06T17:39:02.127Z,6.22
2023-03-06T17:41:06.029Z,6.09
2023-03-06T17:43:09.801Z,6.15
2023-03-06T17:45:14.331Z,6.20
2023-03-06T17:47:18.870Z,6.14
2023-03-06T17:49:23.327Z,6.33
2023-03-06T17:51:26.365Z,6.36
2023-03-06T17:53:30.348Z,6.17
2023-03-06T17:55:33.502Z,6.18
2023-03-06T17:57:36.932Z,6.28
2023-03-06T17:59:40.393Z,6.20
2023-03-06T18:01:45.178Z,6.17
2023-03-06T18:03:51.378Z,5.96
2023-03-06T18:06:00.353Z,6.12
2023-03-06T18:08:03.845Z,6.05
2023-03-06T18:10:07.775Z,6.07
2023-03-06T18:12:11.209Z,6.01
2023-03-06T18:14:14.230Z,6.13
2023-03-06T18:16:20.599Z,6.26
2023-03-06T18:18:24.187Z,6.09
2023-03-06T18:20:28.917Z,5.99
2023-03-06T18:22:32.463Z,5.99
2023-03-06T18:24:35.544Z,6.20
2023-03-06T18:26:42.539Z,6.05
2023-03-06T18:28:46.943Z,6.01
2023-03-06T18:30:50.081Z,5.93
2023-03-06T18:32:53.168Z,6.04
2023-03-06T18:34:56.304Z,5.93
2023-03-06T18:37:00.787Z,5.95
2023-03-06T18:39:04.677Z,5.75
2023-03-06T18:41:08.613Z,5.94
2023-03-06T18:43:11.927Z,5.88
2023-03-06T18:45:15.273Z,5.89
2023-03-06T18:47:18.238Z,5.79
2023-03-06T18:49:22.275Z,6.02
2023-03-06T18:51:25.209Z,5.97
2023-03-06T18:53:29.905Z,5.86
2023-03-06T18:55:33.103Z,5.89
2023-03-06T18:57:36.537Z,5.68
2023-03-06T18:59:39.779Z,5.69
2023-03-06T19:01:44.482Z,5.82
2023-03-06T19:03:47.560Z,5.67
2023-03-06T19:05:50.538Z,5.62
2023-03-06T19:07:53.497Z,5.54
2023-03-06T19:09:57.952Z,5.57
2023-03-06T19:12:03.339Z,5.67
2023-03-06T19:14:06.748Z,5.50
2023-03-06T19:16:10.023Z,5.63
2023-03-06T19:18:13.464Z,5.54
2023-03-06T19:20:17.136Z,5.53
2023-03-06T19:22:20.352Z,5.61
2023-03-06T19:24:23.263Z,5.72
2023-03-06T19:26:28.255Z,5.48
2023-03-06T19:28:56.135Z,5.53
2023-03-06T19:30:59.129Z,5.62
2023-03-06T19:33:02.143Z,5.34
2023-03-06T19:35:06.038Z,5.37
2023-03-06T19:37:09.218Z,5.37
2023-03-06T19:39:12.372Z,5.41
2023-03-06T19:41:15.553Z,5.58
2023-03-06T19:43:22.172Z,5.15
2023-03-06T19:45:25.095Z,5.22
2023-03-06T19:47:28.186Z,5.07
2023-03-06T19:49:36.843Z,5.03
2023-03-06T19:51:39.954Z,5.13
2023-03-06T19:53:42.916Z,4.91
2023-03-06T19:55:45.976Z,5.08
2023-03-06T19:57:50.249Z,5.14
2023-03-06T19:59:54.615Z,5.00
2023-03-06T20:01:57.517Z,4.97
2023-03-06T20:04:00.970Z,5.05
2023-03-06T20:06:06.687Z,4.83
2023-03-06T20:08:09.672Z,5.05
2023-03-06T20:10:12.979Z,5.03
2023-03-06T20:12:18.117Z,4.88
2023-03-06T20:14:21.100Z,4.74
2023-03-06T20:16:27.816Z,4.86
2023-03-06T20:18:30.934Z,4.80
2023-03-06T20:20:33.846Z,4.82
2023-03-06T20:22:37.305Z,4.73
2023-03-06T20:24:40.611Z,4.69
2023-03-06T20:26:44.347Z,4.75
2023-03-06T20:28:47.732Z,4.70
2023-03-06T20:30:50.660Z,4.59
2023-03-06T20:32:55.872Z,4.56
2023-03-06T20:34:59.065Z,4.56
2023-03-06T20:37:03.370Z,4.46
2023-03-06T20:39:11.501Z,4.31
2023-03-06T20:41:16.265Z,4.42
2023-03-06T20:43:19.453Z,4.51
2023-03-06T20:45:22.385Z,4.56
2023-03-06T20:47:25.372Z,4.56
2023-03-06T20:49:30.283Z,4.61
2023-03-06T20:51:36.039Z,4.57
2023-03-06T20:53:39.423Z,4.40
2023-03-06T20:55:42.850Z,4.31
2023-03-06T20:57:45.985Z,4.47
2023-03-06T20:59:48.969Z,4.28
2023-03-06T21:01:52.177Z,4.36
2023-03-06T21:03:56.771Z,4.20
2023-03-06T21:06:02.237Z,4.25
2023-03-06T21:08:05.388Z,4.28
2023-03-06T21:10:10.276Z,4.24
2023-03-06T21:12:13.468Z,4.19
2023-03-06T21:14:16.878Z,4.17
2023-03-06T21:16:21.192Z,4.18
2023-03-06T21:18:24.730Z,4.16
2023-03-06T21:20:28.069Z,4.09
2023-03-06T21:22:32.704Z,4.20
2023-03-06T21:24:35.967Z,4.23
2023-03-06T21:26:39.024Z,4.10
2023-03-06T21:28:42.696Z,4.12
2023-03-06T21:30:46.166Z,4.28
2023-03-06T21:32:49.137Z,4.27
2023-03-06T21:34:53.023Z,4.11
2023-03-06T21:36:56.171Z,4.15
2023-03-06T21:39:00.580Z,4.17
2023-03-06T21:41:09.118Z,4.11
2023-03-06T21:43:12.375Z,4.07
2023-03-06T21:45:16.827Z,3.94
2023-03-06T21:47:21.299Z,4.14
2023-03-06T21:49:26.112Z,4.13
2023-03-06T21:51:29.351Z,4.08
2023-03-06T21:53:32.400Z,4.13
2023-03-06T21:55:40.397Z,4.14
2023-03-06T21:57:44.105Z,4.00
2023-03-06T21:59:47.265Z,3.97
2023-03-06T22:01:50.525Z,3.92
2023-03-06T22:03:54.718Z,3.94
2023-03-06T22:05:58.109Z,3.94
2023-03-06T22:08:03.705Z,3.85
2023-03-06T22:10:13.161Z,3.92
2023-03-06T22:12:18.262Z,3.80
2023-03-06T22:14:22.064Z,3.80
2023-03-06T22:16:25.319Z,3.86
2023-03-06T22:18:30.574Z,3.88
2023-03-06T22:20:34.069Z,3.82
2023-03-06T22:22:36.954Z,3.97
2023-03-06T22:24:40.607Z,3.92
2023-03-06T22:26:43.568Z,3.85
2023-03-06T22:28:47.896Z,3.71
2023-03-06T22:30:50.993Z,3.93
2023-03-06T22:32:55.492Z,3.73
2023-03-06T22:34:58.447Z,3.76
2023-03-06T22:37:01.831Z,3.64
2023-03-06T22:39:05.245Z,3.69
2023-03-06T22:41:09.024Z,3.73
2023-03-06T22:43:12.011Z,3.66
2023-03-06T22:45:16.338Z,3.83
2023-03-06T22:47:19.376Z,3.70
2023-03-06T22:49:22.870Z,3.54
2023-03-06T22:51:26.360Z,3.71
2023-03-06T22:53:29.395Z,3.48
2023-03-06T22:55:32.297Z,3.67
2023-03-06T22:57:35.189Z,3.52
2023-03-06T22:59:38.142Z,3.60
2023-03-06T23:01:43.254Z,3.64
2023-03-06T23:03:48.966Z,3.59
2023-03-06T23:05:52.155Z,3.40
2023-03-06T23:07:55.110Z,3.44
2023-03-06T23:09:58.073Z,3.32
2023-03-06T23:12:19.656Z,3.49
2023-03-06T23:14:41.269Z,3.31
2023-03-06T23:17:04.881Z,3.43
2023-03-06T23:19:26.696Z,3.57
2023-03-06T23:21:48.101Z,3.49
2023-03-06T23:24:10.355Z,3.38
2023-03-06T23:26:14.704Z,3.49
2023-03-06T23:28:17.877Z,3.53
2023-03-06T23:30:20.748Z,3.44
2023-03-06T23:32:25.129Z,3.58
2023-03-06T23:34:28.203Z,3.41
2023-03-06T23:36:31.787Z,3.33
2023-03-06T23:38:35.612Z,3.31
2023-03-06T23:40:39.184Z,3.63
2023-03-06T23:42:42.220Z,3.56
2023-03-06T23:44:45.128Z,3.64
2023-03-06T23:46:48.250Z,3.55
2023-03-06T23:48:52.639Z,3.61
2023-03-06T23:50:55.513Z,3.79
2023-03-06T23:52:58.345Z,3.59
2023-03-06T23:55:01.544Z,3.67
2023-03-06T23:57:04.789Z,3.70
2023-03-06T23:59:08.404Z,3.58
